WetterOnline ( https://www.wetteronline.at )

Wetter aktuell Hunsrück (in 400m)

Aktuelles Wetter: Deuselbach (483m)

6-stündlich | Neueste Meldungen
Ortszeit Temperatur Wetter
Sa, 16.01. 13:00 -2.9° C bedeckt
Sa, 16.01. 7:00 -3.1° C Schneegriesel
Sa, 16.01. 1:00 -2.6° C bedeckt
Fr, 15.01. 19:00 -1.6° C bewölkt
Fr, 15.01. 13:00 -1.9° C leicht bewölkt
Fr, 15.01. 7:00 -3.6° C bedeckt
Fr, 15.01. 1:00 -2.4° C bedeckt
Do, 14.01. 19:00 -1.3° C Schneegriesel
Ortszeit Temperatur Wetter
Sa, 16.01. 13:00 -2.9° C bedeckt
Sa, 16.01. 12:50 -2.9° C bedeckt
Sa, 16.01. 12:40 -2.9° C bedeckt
Sa, 16.01. 12:30 -3.0° C bedeckt
Sa, 16.01. 12:20 -3.0° C bedeckt
Sa, 16.01. 12:10 -3.0° C bedeckt
Sa, 16.01. 12:00 -3.1° C bedeckt
Sa, 16.01. 11:30 -3.0° C bedeckt
Sa, 16.01. 11:00 -2.9° C bedeckt
Sa, 16.01. 10:30 -2.9° C bedeckt
Sa, 16.01. 10:00 -2.9° C bedeckt
Ortszeit Relative Feuchte Sichtweite
Sa, 16.01. 13:00 70% 35 km
Sa, 16.01. 7:00 72% 40 km
Sa, 16.01. 1:00 80% 30 km
Fr, 15.01. 19:00 80% 28 km
Fr, 15.01. 13:00 71% 55 km
Fr, 15.01. 7:00 78% 50 km
Fr, 15.01. 1:00 85% 40 km
Do, 14.01. 19:00 84% 17 km
Ortszeit Relative Feuchte Sichtweite
Sa, 16.01. 13:00 70% 35 km
Sa, 16.01. 12:50 70% -
Sa, 16.01. 12:40 71% -
Sa, 16.01. 12:30 71% 50 km
Sa, 16.01. 12:20 71% -
Sa, 16.01. 12:10 69% -
Sa, 16.01. 12:00 70% 65 km
Sa, 16.01. 11:30 69% 55 km
Sa, 16.01. 11:00 69% 60 km
Sa, 16.01. 10:30 70% 65 km
Sa, 16.01. 10:00 73% 60 km
Ortszeit Niederschlagsmenge Niederschlagsart
Sa, 16.01. 13:00 0.1 l/m2 in 6 Std. Schnee
Sa, 16.01. 7:00 0.1 l/m2 in 12 Std. Schnee, Sprühregen
Sa, 16.01. 1:00 0.1 l/m2 in 6 Std. Schnee
Fr, 15.01. 19:00 0.0 l/m2 in 12 Std. -
Fr, 15.01. 13:00 0.0 l/m2 in 6 Std. -
Fr, 15.01. 7:00 0.1 l/m2 in 12 Std. -
Fr, 15.01. 1:00 0.1 l/m2 in 6 Std. Schnee
Do, 14.01. 19:00 0.2 l/m2 in 12 Std. Schnee
Ortszeit Niederschlagsmenge Niederschlagsart
Sa, 16.01. 13:00 0.1 l/m2 in 1 Std. Schnee
Sa, 16.01. 12:50 keine Meldung -
Sa, 16.01. 12:40 keine Meldung -
Sa, 16.01. 12:30 0.1 l/m2 in 1 Std. Schnee
Sa, 16.01. 12:20 keine Meldung -
Sa, 16.01. 12:10 keine Meldung -
Sa, 16.01. 12:00 0.0 l/m2 in 1 Std. -
Sa, 16.01. 11:30 0.0 l/m2 in 1 Std. -
Sa, 16.01. 11:00 0.1 l/m2 in 1 Std. Schnee
Sa, 16.01. 10:30 0.1 l/m2 in 1 Std. Schnee
Sa, 16.01. 10:00 0.1 l/m2 in 1 Std. Schnee
Ortszeit Stärke Spitze Richtung
km/h Bft. km/h Grad Sektor
Sa, 16.01. 13:00 14 3 22 240° SW
Sa, 16.01. 7:00 7 2 22 50° NO
Sa, 16.01. 1:00 0 0 18 - -
Fr, 15.01. 19:00 7 2 30 70° O
Fr, 15.01. 13:00 17 3 26 50° NO
Fr, 15.01. 7:00 11 2 37 80° O
Fr, 15.01. 1:00 22 4 40 50° NO
Do, 14.01. 19:00 11 2 25 110° O
Ortszeit Stärke Spitze Richtung
km/h Bft. km/h Grad Sektor
Sa, 16.01. 13:00 14 3 22 240° SW
Sa, 16.01. 12:50 14 3 - 240° SW
Sa, 16.01. 12:40 11 2 - 240° SW
Sa, 16.01. 12:30 6 1 22 250° W
Sa, 16.01. 12:20 6 1 - 250° W
Sa, 16.01. 12:10 7 2 - 230° SW
Sa, 16.01. 12:00 11 2 22 190° S
Sa, 16.01. 11:30 9 2 17 180° S
Sa, 16.01. 11:00 7 2 11 190° S
Sa, 16.01. 10:30 7 2 11 160° S
Sa, 16.01. 10:00 4 1 11 200° S
Ortszeit Untergrenze Bedeckung Gattung
total tief tief mittel hoch
Sa, 16.01. 13:00 600 m 8/8 8/8 - - -
Sa, 16.01. 7:00 570 m 8/8 8/8 - - -
Sa, 16.01. 1:00 570 m 8/8 8/8 - - -
Fr, 15.01. 19:00 1200 m 7/8 7/8 - - -
Fr, 15.01. 13:00 720 m 4/8 4/8 - - -
Fr, 15.01. 7:00 5700 m 8/8 8/8 - - -
Fr, 15.01. 1:00 330 m 8/8 8/8 - - -
Do, 14.01. 19:00 330 m 7/8 7/8 - - -
Ortszeit Bedeckungsgrad in Achtel und Wolkenuntergrenze
Sa, 16.01. 13:00 8(600m)
Sa, 16.01. 12:50 8(600m)
Sa, 16.01. 12:40 8(600m)
Sa, 16.01. 12:30 8(600m)
Sa, 16.01. 12:20 8(600m)
Sa, 16.01. 12:10 8(570m)
Sa, 16.01. 12:00 8(570m)
Sa, 16.01. 11:30 8(600m)
Sa, 16.01. 11:00 8(660m)
Sa, 16.01. 10:30 8(660m)
Sa, 16.01. 10:00 8(660m)
Ortszeit Luftdruck NN (hPa) Tendenz (hPa in 3 Std.)
Sa, 16.01. 13:00 1027 - 1,3
Sa, 16.01. 7:00 1030 - 0,4
Sa, 16.01. 1:00 1030 + 0,1
Fr, 15.01. 19:00 1029 + 1,6
Fr, 15.01. 13:00 1027 + 1,5
Fr, 15.01. 7:00 1023 + 2,1
Fr, 15.01. 1:00 1019 + 0,9
Do, 14.01. 19:00 1018 - 0,8
Ortszeit Luftdruck NN (hPa) Tendenz (hPa in 3 Std.)
Sa, 16.01. 13:00 1027 - 1,3
Sa, 16.01. 12:50 1027 keine Meldung
Sa, 16.01. 12:40 1028 keine Meldung
Sa, 16.01. 12:30 1028 - 1,1
Sa, 16.01. 12:20 1028 keine Meldung
Sa, 16.01. 12:10 1028 keine Meldung
Sa, 16.01. 12:00 1028 - 1,0
Sa, 16.01. 11:30 1029 - 0,7
Sa, 16.01. 11:00 1029 - 0,6
Sa, 16.01. 10:30 1029 - 0,7
Sa, 16.01. 10:00 1029 - 0,8
Ortszeit Schneehöhe (cm)
Sa, 16.01. 13:00 4
Sa, 16.01. 7:00 4
Sa, 16.01. 1:00 4
Fr, 15.01. 19:00 4
Fr, 15.01. 13:00 5
Fr, 15.01. 7:00 5
Fr, 15.01. 1:00 5
Do, 14.01. 19:00 5
Ortszeit Schneehöhe (cm)
Sa, 16.01. 13:00 4
Sa, 16.01. 12:50 4
Sa, 16.01. 12:40 4
Sa, 16.01. 12:30 4
Sa, 16.01. 12:20 4
Sa, 16.01. 12:10 4
Sa, 16.01. 12:00 4
Sa, 16.01. 11:30 4
Sa, 16.01. 11:00 4
Sa, 16.01. 10:30 4
Sa, 16.01. 10:00 4
Link zu dieser Seite / Seite empfehlen

Das Wetter in ...